Time;durP1;ratioP1;P1;durP2;ratioP2;P2;SDS_P1;SDS_P2;PMS_P1;PMS_P2;Temp;Humidity;BMP_temperature;BMP_pressure;BME280_temperature;BME280_humidity;BME280_pressure;Samples;Min_cycle;Max_cycle;Signal;HPM_P1;HPM_P2
2023/04/12 00:00:51;;;;;;;4.00;1.60;;;;;;;18.81;43.13;100533.88;5058523;28;20065;-39
2023/04/12 00:03:19;;;;;;;4.95;1.85;;;;;;;18.78;42.51;100526.19;5061690;28;20059;-37
2023/04/12 00:05:47;;;;;;;3.17;1.10;;;;;;;18.76;43.05;100526.31;5061017;28;20044;-38
2023/04/12 00:08:15;;;;;;;5.38;1.65;;;;;;;18.74;42.99;100522.97;5061351;28;20052;-40
2023/04/12 00:10:42;;;;;;;5.10;1.70;;;;;;;18.73;43.00;100513.22;5060850;28;20082;-38
2023/04/12 00:13:09;;;;;;;5.38;1.17;;;;;;;18.72;43.24;100516.94;5059579;28;20127;-36
2023/04/12 00:15:35;;;;;;;3.53;1.52;;;;;;;18.71;43.03;100491.09;5063452;28;20053;-39
2023/04/12 00:18:02;;;;;;;3.15;1.30;;;;;;;18.68;43.17;100486.84;5060922;28;20052;-37
2023/04/12 00:20:29;;;;;;;5.30;1.60;;;;;;;18.67;43.61;100484.34;5057890;28;20044;-41
2023/04/12 00:22:56;;;;;;;3.58;1.50;;;;;;;18.65;43.45;100460.38;5060940;28;20048;-37
2023/04/12 00:25:23;;;;;;;3.25;1.25;;;;;;;18.65;43.58;100462.19;5056673;28;20100;-38
2023/04/12 00:27:50;;;;;;;6.40;1.52;;;;;;;18.64;43.34;100460.50;5061077;28;20053;-38
2023/04/12 00:30:16;;;;;;;5.22;1.38;;;;;;;18.63;43.23;100453.47;5062246;28;20067;-39
2023/04/12 00:32:43;;;;;;;2.60;1.42;;;;;;;18.59;43.18;100450.28;5061181;28;20053;-38
2023/04/12 00:35:10;;;;;;;2.88;1.38;;;;;;;18.59;43.13;100436.84;5062002;28;20051;-38
2023/04/12 00:37:37;;;;;;;4.03;1.40;;;;;;;18.58;43.59;100418.25;5058793;28;20486;-39
2023/04/12 00:40:08;;;;;;;5.28;1.73;;;;;;;18.56;43.54;100402.28;5058713;28;20052;-37
2023/04/12 00:42:36;;;;;;;3.55;1.17;;;;;;;18.54;43.43;100396.28;5061662;28;20305;-37
2023/04/12 00:45:03;;;;;;;3.20;1.20;;;;;;;18.53;43.55;100383.00;5059356;28;20051;-42
2023/04/12 00:47:31;;;;;;;3.63;1.42;;;;;;;18.51;43.46;100375.13;5063237;28;20052;-39
2023/04/12 00:49:58;;;;;;;2.65;1.20;;;;;;;18.50;43.23;100368.09;5064380;28;20431;-39
2023/04/12 00:52:26;;;;;;;2.22;1.00;;;;;;;18.48;43.49;100352.13;5056765;28;20056;-38
2023/04/12 00:54:53;;;;;;;4.38;1.67;;;;;;;18.47;43.43;100352.31;5059460;28;20045;-38
2023/04/12 00:57:21;;;;;;;4.80;1.40;;;;;;;18.46;43.69;100356.03;5061026;28;20500;-36
2023/04/12 00:59:47;;;;;;;3.60;1.20;;;;;;;18.45;43.97;100355.19;5060968;28;20052;-37
2023/04/12 01:02:16;;;;;;;4.75;1.30;;;;;;;18.45;43.91;100348.94;5062261;28;20052;-37
2023/04/12 01:04:43;;;;;;;3.97;1.42;;;;;;;18.43;43.56;100340.25;5062504;28;20055;-36
2023/04/12 01:07:24;;;;;;;3.05;1.50;;;;;;;18.41;44.05;100335.06;5062028;28;20044;-37
2023/04/12 01:10:27;;;;;;;2.75;1.17;;;;;;;18.39;43.51;100326.31;5063012;28;20337;-38
2023/04/12 01:13:00;;;;;;;3.57;1.23;;;;;;;18.39;43.98;100325.50;5066011;28;20418;-40
2023/04/12 01:15:31;;;;;;;2.67;0.95;;;;;;;18.38;43.56;100315.78;5063294;28;20139;-37
2023/04/12 01:18:08;;;;;;;2.80;1.17;;;;;;;18.36;43.47;100307.03;5056542;28;20443;-38
2023/04/12 01:20:47;;;;;;;1.55;1.02;;;;;;;18.34;43.54;100284.94;5057624;28;20064;-36
2023/04/12 01:23:30;;;;;;;3.20;1.17;;;;;;;18.32;43.68;100285.06;5056942;28;20347;-37
2023/04/12 01:26:11;;;;;;;3.55;0.90;;;;;;;18.31;43.59;100274.53;5058398;28;20062;-36
2023/04/12 01:28:41;;;;;;;3.03;0.93;;;;;;;18.30;43.51;100273.69;5055993;28;20057;-37
2023/04/12 01:31:09;;;;;;;1.98;0.90;;;;;;;18.31;43.88;100261.09;5057520;28;20055;-37
2023/04/12 01:33:38;;;;;;;1.33;0.65;;;;;;;18.29;43.78;100260.44;5058508;28;20081;-38
2023/04/12 01:36:17;;;;;;;2.08;0.93;;;;;;;18.28;43.68;100256.06;5063183;28;20428;-36
2023/04/12 01:38:45;;;;;;;3.10;0.98;;;;;;;18.28;43.61;100245.34;5059831;28;20056;-37
2023/04/12 01:41:12;;;;;;;1.85;0.75;;;;;;;18.26;43.53;100237.47;5067220;28;20051;-37
2023/04/12 01:43:43;;;;;;;2.58;1.00;;;;;;;18.24;43.68;100226.91;5065813;28;20049;-38
2023/04/12 01:46:11;;;;;;;2.72;1.08;;;;;;;18.22;43.47;100226.25;5063932;28;20053;-38
2023/04/12 01:48:38;;;;;;;1.42;0.73;;;;;;;18.22;43.91;100218.19;5065893;28;20060;-38
2023/04/12 01:51:13;;;;;;;1.70;0.65;;;;;;;18.20;43.76;100208.63;5061322;28;20063;-39
2023/04/12 01:53:53;;;;;;;1.55;0.60;;;;;;;18.19;43.89;100204.28;5066279;28;20131;-37
2023/04/12 01:56:21;;;;;;;2.55;1.00;;;;;;;18.19;43.87;100199.75;5068087;28;20067;-37
2023/04/12 01:58:52;;;;;;;2.50;0.80;;;;;;;18.17;43.76;100196.44;5061911;28;20409;-36
2023/04/12 02:01:19;;;;;;;2.15;0.88;;;;;;;18.15;44.31;100190.38;5057982;28;20053;-38
2023/04/12 02:03:48;;;;;;;1.33;0.70;;;;;;;18.14;43.91;100177.97;5059425;28;20060;-40
2023/04/12 02:06:19;;;;;;;1.13;0.90;;;;;;;18.13;43.94;100162.03;5060366;28;20384;-37
2023/04/12 02:08:46;;;;;;;1.48;0.80;;;;;;;18.11;43.81;100159.53;5060408;28;20056;-39
2023/04/12 02:11:16;;;;;;;4.63;1.08;;;;;;;18.11;44.21;100156.03;5060949;28;20333;-40
2023/04/12 02:13:43;;;;;;;2.53;0.80;;;;;;;18.10;43.71;100159.72;5060232;28;20056;-40
2023/04/12 02:16:09;;;;;;;2.78;0.93;;;;;;;18.08;44.09;100151.00;5057099;28;20106;-39
2023/04/12 02:18:36;;;;;;;1.80;0.70;;;;;;;18.06;44.29;100145.81;5060202;28;20438;-39
2023/04/12 02:21:03;;;;;;;1.60;0.80;;;;;;;18.05;43.94;100133.44;5059978;28;20040;-41
2023/04/12 02:23:29;;;;;;;1.95;0.98;;;;;;;18.04;44.03;100121.00;5063276;28;20123;-37
2023/04/12 02:25:56;;;;;;;2.08;0.98;;;;;;;18.04;44.25;100125.53;5064504;28;20459;-39
2023/04/12 02:28:22;;;;;;;2.92;1.00;;;;;;;18.01;43.95;100110.66;5062766;28;20363;-38
2023/04/12 02:30:52;;;;;;;2.92;1.08;;;;;;;18.00;44.28;100098.22;5060273;28;20440;-37
2023/04/12 02:33:24;;;;;;;3.22;1.13;;;;;;;17.98;44.35;100086.84;5064315;28;20494;-38
2023/04/12 02:35:51;;;;;;;3.00;0.95;;;;;;;17.99;44.18;100099.25;5061751;28;20135;-40
2023/04/12 02:38:18;;;;;;;1.85;0.88;;;;;;;17.98;44.00;100084.16;5049835;28;20059;-39
2023/04/12 02:40:44;;;;;;;2.05;0.80;;;;;;;17.98;44.30;100092.22;5061741;28;20048;-37
2023/04/12 02:43:11;;;;;;;1.52;0.80;;;;;;;17.97;44.20;100087.88;5061544;28;20479;-38
2023/04/12 02:45:37;;;;;;;2.78;0.70;;;;;;;17.96;44.00;100081.63;5065540;28;20123;-37
2023/04/12 02:48:04;;;;;;;4.95;1.05;;;;;;;17.96;44.40;100070.06;5066708;28;20045;-39
2023/04/12 02:50:31;;;;;;;1.90;0.50;;;;;;;17.94;44.44;100058.72;5068394;28;20415;-37
2023/04/12 02:52:57;;;;;;;1.95;1.00;;;;;;;17.93;44.27;100052.50;5062505;28;20041;-40
2023/04/12 02:55:24;;;;;;;2.50;0.88;;;;;;;17.94;44.25;100045.31;5067422;28;20347;-38
2023/04/12 02:57:52;;;;;;;1.08;0.70;;;;;;;17.91;44.35;100041.09;5066546;28;20051;-37
2023/04/12 03:00:20;;;;;;;1.58;0.73;;;;;;;17.91;44.20;100037.59;5061671;28;20479;-39
2023/04/12 03:02:50;;;;;;;1.17;0.73;;;;;;;17.89;44.84;100037.78;5065488;28;20063;-39
2023/04/12 03:05:17;;;;;;;1.75;0.95;;;;;;;17.89;44.31;100031.56;5064308;28;20051;-38
2023/04/12 03:07:45;;;;;;;2.75;0.70;;;;;;;17.88;44.36;100029.91;5063502;28;20048;-37
2023/04/12 03:10:12;;;;;;;2.15;1.17;;;;;;;17.88;44.59;100024.53;5065281;28;20052;-39
2023/04/12 03:12:38;;;;;;;2.75;0.82;;;;;;;17.85;44.21;100022.19;5062570;28;20333;-39
2023/04/12 03:15:05;;;;;;;3.08;0.95;;;;;;;17.85;44.68;100009.66;5062730;28;20420;-41
2023/04/12 03:17:32;;;;;;;2.85;0.82;;;;;;;17.84;44.47;100007.13;5061798;28;20140;-38
2023/04/12 03:20:08;;;;;;;3.78;1.00;;;;;;;17.83;44.43;100005.47;5062789;28;20325;-41
2023/04/12 03:22:36;;;;;;;1.85;1.10;;;;;;;17.82;44.80;100001.13;5064788;28;20052;-40
2023/04/12 03:25:04;;;;;;;1.92;0.77;;;;;;;17.81;44.87;99997.59;5060836;28;20070;-37
2023/04/12 03:27:30;;;;;;;2.03;0.85;;;;;;;17.81;44.70;99996.72;5059010;28;20045;-40
2023/04/12 03:29:57;;;;;;;1.33;0.98;;;;;;;17.79;44.95;99988.88;5059988;28;20048;-41
2023/04/12 03:32:23;;;;;;;2.05;1.02;;;;;;;17.79;45.27;99977.31;5063446;28;20366;-39
2023/04/12 03:34:50;;;;;;;1.48;0.70;;;;;;;17.79;44.98;99971.97;5059746;28;20440;-42
2023/04/12 03:37:17;;;;;;;3.35;1.05;;;;;;;17.78;44.90;99970.31;5060454;28;20060;-41
2023/04/12 03:39:46;;;;;;;2.63;0.90;;;;;;;17.78;44.92;99951.53;5064361;28;20044;-43
2023/04/12 03:42:14;;;;;;;1.65;0.75;;;;;;;17.75;44.90;99950.88;5062684;28;20059;-41
2023/04/12 03:44:57;;;;;;;1.48;0.60;;;;;;;17.75;45.29;99942.00;5058597;28;20051;-40
2023/04/12 03:47:24;;;;;;;1.88;0.80;;;;;;;17.74;45.11;99951.88;5057085;28;20055;-39
2023/04/12 03:49:53;;;;;;;2.17;0.80;;;;;;;17.73;45.23;99935.94;5063996;28;20344;-38
2023/04/12 03:52:37;;;;;;;2.88;0.90;;;;;;;17.74;44.95;99932.25;5060245;28;20154;-41
2023/04/12 03:55:05;;;;;;;1.50;0.60;;;;;;;17.72;45.15;99916.31;5060332;28;20054;-40
2023/04/12 03:57:32;;;;;;;2.42;0.90;;;;;;;17.71;44.86;99914.66;5060613;28;20360;-38
2023/04/12 03:59:59;;;;;;;2.72;1.13;;;;;;;17.70;44.93;99909.50;5060519;28;20052;-39
2023/04/12 04:02:26;;;;;;;2.08;0.65;;;;;;;17.69;45.06;99897.94;5062211;28;20051;-38
2023/04/12 04:04:53;;;;;;;2.33;0.93;;;;;;;17.68;45.27;99890.88;5063472;28;20053;-37
2023/04/12 04:07:20;;;;;;;2.22;0.88;;;;;;;17.68;45.16;99892.72;5059042;28;21387;-38
2023/04/12 04:09:48;;;;;;;1.45;0.70;;;;;;;17.67;45.14;99888.41;5057493;28;20056;-39
2023/04/12 04:12:15;;;;;;;1.77;0.75;;;;;;;17.66;44.92;99892.09;5058787;28;20055;-37
2023/04/12 04:14:42;;;;;;;2.30;1.48;;;;;;;17.64;45.61;99891.41;5056560;28;20099;-38
2023/04/12 04:17:08;;;;;;;3.35;0.73;;;;;;;17.64;45.07;99892.25;5055256;28;20118;-36
2023/04/12 04:19:35;;;;;;;1.45;0.70;;;;;;;17.63;45.76;99890.59;5062364;28;20070;-38
2023/04/12 04:22:01;;;;;;;1.55;0.68;;;;;;;17.63;45.23;99887.91;5062363;28;20048;-39
2023/04/12 04:24:28;;;;;;;3.13;0.80;;;;;;;17.63;45.40;99879.03;5057435;28;20068;-37
2023/04/12 04:26:55;;;;;;;2.20;0.82;;;;;;;17.63;45.65;99893.25;5062323;28;20045;-37
2023/04/12 04:29:22;;;;;;;1.45;1.08;;;;;;;17.63;45.23;99877.19;5064215;28;20076;-39
2023/04/12 04:31:49;;;;;;;1.73;0.65;;;;;;;17.62;45.73;99864.81;5060165;28;20045;-37
2023/04/12 04:34:17;;;;;;;2.30;0.75;;;;;;;17.60;45.77;99869.50;5061255;28;20343;-39
2023/04/12 04:36:45;;;;;;;2.35;0.80;;;;;;;17.59;45.27;99873.19;5057625;28;20084;-39
2023/04/12 04:39:12;;;;;;;0.77;0.57;;;;;;;17.59;45.53;99878.53;5062905;28;20432;-38
2023/04/12 04:41:40;;;;;;;1.38;0.75;;;;;;;17.60;45.70;99868.66;5076756;28;20041;-39
2023/04/12 04:44:12;;;;;;;2.25;0.85;;;;;;;17.60;45.35;99865.97;5066205;28;20049;-37
2023/04/12 04:46:38;;;;;;;1.90;0.60;;;;;;;17.60;45.36;99863.31;5063166;28;20059;-40
2023/04/12 04:49:05;;;;;;;1.77;0.85;;;;;;;17.59;45.42;99857.09;5064966;28;20048;-39
2023/04/12 04:51:32;;;;;;;2.05;0.88;;;;;;;17.58;45.33;99868.00;5062329;28;20084;-40
2023/04/12 04:53:59;;;;;;;2.42;0.65;;;;;;;17.58;45.53;99860.81;5064555;28;20098;-39
2023/04/12 04:56:25;;;;;;;1.48;0.80;;;;;;;17.57;45.59;99869.00;5056596;28;20057;-40
2023/04/12 04:58:52;;;;;;;1.27;0.55;;;;;;;17.56;45.66;99876.22;5063547;28;20045;-38
2023/04/12 05:01:27;;;;;;;2.05;0.68;;;;;;;17.54;45.61;99875.56;5062883;28;20174;-40
2023/04/12 05:03:54;;;;;;;1.38;1.27;;;;;;;17.55;45.82;99879.06;5061442;28;20124;-38
2023/04/12 05:06:24;;;;;;;2.35;0.77;;;;;;;17.53;45.84;99871.22;5064547;28;20433;-36
2023/04/12 05:08:51;;;;;;;1.13;0.60;;;;;;;17.55;46.29;99865.69;5082397;28;20047;-38
2023/04/12 05:11:19;;;;;;;2.30;0.90;;;;;;;17.55;45.65;99863.81;5066626;28;20059;-38
2023/04/12 05:13:46;;;;;;;1.95;0.70;;;;;;;17.54;45.89;99864.00;5062036;28;20352;-40
2023/04/12 05:16:12;;;;;;;3.70;0.82;;;;;;;17.54;45.84;99862.16;5066355;28;20048;-38
2023/04/12 05:18:39;;;;;;;1.58;0.70;;;;;;;17.54;45.52;99859.50;5066181;28;20406;-36
2023/04/12 05:21:06;;;;;;;1.33;0.65;;;;;;;17.54;45.80;99866.69;5067117;28;20344;-36
2023/04/12 05:23:36;;;;;;;1.02;0.75;;;;;;;17.53;45.53;99871.22;5064252;28;20053;-37
2023/04/12 05:26:03;;;;;;;3.90;1.52;;;;;;;17.53;45.54;99865.88;5061556;28;20429;-39
2023/04/12 05:28:30;;;;;;;0.70;0.70;;;;;;;17.55;45.42;99857.63;5062139;28;20058;-37
2023/04/12 05:30:57;;;;;;;1.13;0.85;;;;;;;17.54;45.83;99867.53;5063406;28;20127;-38
2023/04/12 05:33:24;;;;;;;2.10;1.15;;;;;;;17.54;46.10;99872.88;5083735;28;20356;-39
2023/04/12 05:35:50;;;;;;;0.98;0.65;;;;;;;17.54;46.20;99867.53;5069768;28;20398;-37
2023/04/12 05:38:17;;;;;;;1.63;1.08;;;;;;;17.54;45.95;99872.06;5075010;28;20068;-39
2023/04/12 05:40:44;;;;;;;1.33;0.55;;;;;;;17.54;46.23;99862.16;5069870;28;20048;-39
2023/04/12 05:43:11;;;;;;;1.73;0.90;;;;;;;17.55;46.21;99865.69;5073793;28;20044;-38
2023/04/12 05:45:40;;;;;;;1.15;0.60;;;;;;;17.54;45.71;99862.16;5067925;28;20041;-39
2023/04/12 05:48:07;;;;;;;2.25;1.00;;;;;;;17.53;45.97;99855.16;5065473;28;20133;-38
2023/04/12 05:50:34;;;;;;;0.75;0.70;;;;;;;17.54;46.25;99859.50;5069303;28;20452;-39
2023/04/12 05:53:01;;;;;;;1.15;0.70;;;;;;;17.55;46.21;99863.00;5067073;28;20079;-40
2023/04/12 05:55:28;;;;;;;1.52;0.55;;;;;;;17.56;45.83;99878.06;5069840;28;20352;-39
2023/04/12 05:57:56;;;;;;;1.73;0.85;;;;;;;17.56;46.28;99870.84;5061966;28;20136;-37
2023/04/12 06:00:23;;;;;;;1.17;0.70;;;;;;;17.57;46.16;99874.34;5064799;28;20049;-40
2023/04/12 06:02:50;;;;;;;2.15;0.93;;;;;;;17.58;45.58;99873.38;5064466;28;20138;-37
2023/04/12 06:05:17;;;;;;;1.27;0.60;;;;;;;17.58;45.80;99884.91;5063088;28;20044;-40
2023/04/12 06:07:47;;;;;;;1.42;0.77;;;;;;;17.58;46.24;99879.56;5063737;28;20386;-38
2023/04/12 06:10:15;;;;;;;1.73;0.98;;;;;;;17.59;45.75;99872.34;5081928;28;20080;-38
2023/04/12 06:12:43;;;;;;;2.92;0.88;;;;;;;17.60;46.02;99857.94;5063161;28;20059;-37
2023/04/12 06:15:10;;;;;;;1.48;0.80;;;;;;;17.61;45.99;99864.97;5065488;28;20040;-38
2023/04/12 06:17:37;;;;;;;3.60;1.00;;;;;;;17.61;45.77;99870.31;5059326;28;20103;-36
2023/04/12 06:20:07;;;;;;;1.27;0.80;;;;;;;17.61;45.57;99878.34;5064785;28;20044;-39
2023/04/12 06:22:34;;;;;;;2.17;1.00;;;;;;;17.63;45.52;99882.53;5057443;28;20059;-36
2023/04/12 06:25:01;;;;;;;2.90;1.10;;;;;;;17.64;45.80;99870.81;5061931;28;20048;-36
2023/04/12 06:27:27;;;;;;;3.70;1.10;;;;;;;17.63;46.03;99877.19;5062958;28;20044;-38
2023/04/12 06:29:54;;;;;;;2.03;1.00;;;;;;;17.64;46.02;99870.81;5064844;28;20052;-38
2023/04/12 06:32:21;;;;;;;2.35;0.80;;;;;;;17.64;45.73;99862.78;5057361;28;20059;-37
2023/04/12 06:34:47;;;;;;;4.63;0.90;;;;;;;17.65;46.28;99853.75;5066758;28;20056;-40
2023/04/12 06:37:14;;;;;;;1.75;0.95;;;;;;;17.66;45.88;99858.09;5065030;28;20079;-37
2023/04/12 06:39:41;;;;;;;2.38;0.93;;;;;;;17.67;45.75;99865.09;5062487;28;20424;-39
2023/04/12 06:42:08;;;;;;;2.70;0.90;;;;;;;17.68;45.60;99873.97;5060854;28;20049;-38
2023/04/12 06:44:34;;;;;;;1.88;1.38;;;;;;;17.68;45.99;99849.84;5063025;28;20056;-39
2023/04/12 06:47:01;;;;;;;2.75;1.05;;;;;;;17.69;46.16;99854.22;5064281;28;20048;-36
2023/04/12 06:49:27;;;;;;;2.63;1.30;;;;;;;17.70;45.77;99856.72;5064389;28;20059;-39
2023/04/12 06:51:54;;;;;;;2.40;1.10;;;;;;;17.71;45.69;99850.34;5065523;28;20349;-38
2023/04/12 06:54:21;;;;;;;2.50;1.15;;;;;;;17.72;45.41;99848.50;5067966;28;20045;-37
2023/04/12 06:56:48;;;;;;;3.25;1.00;;;;;;;17.73;45.86;99859.06;5062310;28;20048;-39
2023/04/12 06:59:14;;;;;;;1.75;0.80;;;;;;;17.74;45.64;99863.44;5069023;28;20055;-39
2023/04/12 07:01:41;;;;;;;1.95;0.90;;;;;;;17.76;46.06;99857.88;5066854;28;20059;-39
2023/04/12 07:04:10;;;;;;;2.92;1.15;;;;;;;17.77;45.61;99862.25;5067325;28;20056;-39
2023/04/12 07:06:36;;;;;;;1.92;0.80;;;;;;;17.76;45.75;99853.34;5068891;28;20052;-39
2023/04/12 07:09:03;;;;;;;2.08;1.10;;;;;;;17.77;45.43;99851.53;5065621;28;20127;-36
2023/04/12 07:11:30;;;;;;;2.40;1.25;;;;;;;17.78;45.25;99857.72;5063129;28;20408;-39
2023/04/12 07:14:00;;;;;;;2.97;1.23;;;;;;;17.79;45.68;99859.38;5067208;28;20055;-37
2023/04/12 07:16:30;;;;;;;2.03;1.00;;;;;;;17.79;45.78;99859.38;5063378;28;20131;-38
2023/04/12 07:18:58;;;;;;;1.73;1.10;;;;;;;17.80;45.52;99864.56;5062059;28;20052;-39
2023/04/12 07:21:26;;;;;;;3.13;1.10;;;;;;;17.80;45.82;99869.94;5064272;28;20439;-36
2023/04/12 07:23:52;;;;;;;4.28;1.27;;;;;;;17.81;45.60;99873.44;5066169;28;20090;-36
2023/04/12 07:26:20;;;;;;;2.90;1.15;;;;;;;17.81;45.68;99863.56;5060052;28;20056;-40
2023/04/12 07:28:47;;;;;;;2.60;0.98;;;;;;;17.82;45.81;99867.91;5065846;28;20049;-36
2023/04/12 07:31:13;;;;;;;4.97;1.50;;;;;;;17.83;45.60;99864.22;5061586;28;20135;-39
2023/04/12 07:33:40;;;;;;;2.92;0.90;;;;;;;17.84;45.76;99851.66;5064134;28;20077;-38
2023/04/12 07:36:09;;;;;;;2.95;1.13;;;;;;;17.85;45.76;99853.31;5063871;28;20045;-39
2023/04/12 07:38:36;;;;;;;1.77;1.10;;;;;;;17.87;45.85;99853.97;5057523;28;20049;-37
2023/04/12 07:41:03;;;;;;;2.78;0.98;;;;;;;17.86;45.73;99845.09;5065417;28;20055;-38
2023/04/12 07:43:29;;;;;;;2.88;1.27;;;;;;;17.87;45.75;99837.91;5064737;28;20063;-37
2023/04/12 07:45:56;;;;;;;2.90;1.35;;;;;;;17.88;45.43;99840.38;5064409;28;20032;-40
2023/04/12 07:48:23;;;;;;;4.10;1.25;;;;;;;17.89;45.61;99841.22;5058542;28;20587;-40
2023/04/12 07:50:50;;;;;;;3.67;1.17;;;;;;;17.91;45.42;99839.22;5065228;28;20052;-40
2023/04/12 07:53:22;;;;;;;2.65;1.33;;;;;;;17.92;45.37;99843.56;5060616;28;20057;-39
2023/04/12 07:55:49;;;;;;;3.33;1.50;;;;;;;17.94;45.78;99842.38;5063433;28;20083;-38
2023/04/12 07:58:20;;;;;;;2.65;1.10;;;;;;;17.96;45.78;99840.34;5061338;28;20457;-37
2023/04/12 08:00:47;;;;;;;1.75;1.02;;;;;;;17.98;45.50;99838.31;5059809;28;20045;-40
2023/04/12 08:03:15;;;;;;;2.45;1.45;;;;;;;18.02;45.63;99835.31;5063633;28;20048;-39
2023/04/12 08:05:43;;;;;;;1.95;0.95;;;;;;;18.04;45.56;99830.56;5063414;28;20041;-40
2023/04/12 08:08:10;;;;;;;4.15;1.85;;;;;;;18.05;45.27;99825.06;5062292;28;20052;-36
2023/04/12 08:10:38;;;;;;;3.70;1.27;;;;;;;18.08;45.65;99827.34;5063025;28;20040;-40
2023/04/12 08:13:05;;;;;;;6.13;1.42;;;;;;;18.10;45.34;99824.50;5064057;28;20106;-38
2023/04/12 08:15:32;;;;;;;3.60;1.40;;;;;;;18.13;45.47;99829.50;5064447;28;20044;-40
2023/04/12 08:18:01;;;;;;;5.00;1.50;;;;;;;18.16;45.46;99837.19;5061318;28;20483;-39
2023/04/12 08:20:28;;;;;;;5.15;1.45;;;;;;;18.20;45.89;99836.66;5064580;28;20495;-41
2023/04/12 08:22:55;;;;;;;4.38;1.50;;;;;;;18.23;45.30;99830.94;5065755;28;20487;-41
2023/04/12 08:25:21;;;;;;;6.30;1.80;;;;;;;18.29;45.07;99829.41;5062414;28;20379;-40
2023/04/12 08:27:49;;;;;;;4.63;1.80;;;;;;;18.33;45.46;99829.84;5062757;28;20106;-40
2023/04/12 08:30:17;;;;;;;6.50;1.45;;;;;;;18.36;45.17;99829.50;5061269;28;20455;-40
2023/04/12 08:32:44;;;;;;;5.50;1.83;;;;;;;18.41;45.29;99824.41;5065531;28;20114;-39
2023/04/12 08:35:11;;;;;;;5.53;1.75;;;;;;;18.45;45.33;99831.94;5062592;28;20041;-37
2023/04/12 08:37:37;;;;;;;9.20;2.00;;;;;;;18.49;45.37;99832.38;5060747;28;20052;-38
2023/04/12 08:40:06;;;;;;;5.57;1.88;;;;;;;18.53;45.09;99827.50;5059800;28;20071;-39
2023/04/12 08:42:36;;;;;;;7.47;2.17;;;;;;;18.57;44.77;99834.16;5066421;28;20053;-40
2023/04/12 08:45:08;;;;;;;9.25;2.45;;;;;;;18.59;44.79;99830.31;5064836;28;20131;-38
2023/04/12 08:47:37;;;;;;;7.15;1.83;;;;;;;18.63;44.67;99834.28;5064827;28;20126;-39
2023/04/12 08:50:09;;;;;;;5.60;1.70;;;;;;;18.66;44.92;99844.66;5064660;28;20143;-38
2023/04/12 08:52:39;;;;;;;4.20;2.10;;;;;;;18.69;44.60;99838.94;5063921;28;20155;-38
2023/04/12 08:55:07;;;;;;;6.07;2.42;;;;;;;18.71;44.50;99836.91;5061383;28;20045;-36
2023/04/12 08:57:35;;;;;;;5.03;1.75;;;;;;;18.72;44.36;99825.16;5061360;28;20424;-38
2023/04/12 09:00:02;;;;;;;5.13;2.28;;;;;;;18.74;44.61;99825.81;5060145;28;20086;-37
2023/04/12 09:02:30;;;;;;;3.65;1.75;;;;;;;18.75;44.57;99818.59;5063309;28;20056;-40
2023/04/12 09:04:57;;;;;;;8.43;2.15;;;;;;;18.77;44.25;99813.88;5063463;28;20498;-42
2023/04/12 09:07:29;;;;;;;5.28;2.15;;;;;;;18.78;44.28;99823.63;5060926;28;20052;-40
2023/04/12 09:09:57;;;;;;;5.15;2.00;;;;;;;18.81;44.64;99825.06;5063705;28;20102;-42
2023/04/12 09:12:24;;;;;;;5.00;2.03;;;;;;;18.83;44.54;99821.19;5080272;28;20127;-37
2023/04/12 09:15:12;;;;;;;4.75;1.98;;;;;;;18.84;44.50;99820.19;5058807;28;20321;-41
2023/04/12 09:17:42;;;;;;;4.85;2.03;;;;;;;18.87;45.06;99808.25;5060294;28;20056;-39
2023/04/12 09:20:15;;;;;;;8.43;2.40;;;;;;;18.90;44.49;99815.94;5064088;28;20584;-39
2023/04/12 09:22:46;;;;;;;6.15;2.05;;;;;;;18.91;44.73;99805.00;5060240;28;20139;-38
2023/04/12 09:25:14;;;;;;;7.10;2.70;;;;;;;18.95;44.68;99821.59;5062239;28;20048;-38
2023/04/12 09:27:48;;;;;;;9.32;2.20;;;;;;;18.94;44.25;99822.59;5061182;28;20045;-39
2023/04/12 09:30:16;;;;;;;7.60;2.28;;;;;;;18.95;44.35;99819.72;5058929;28;20143;-37
2023/04/12 09:32:43;;;;;;;6.25;2.30;;;;;;;18.98;44.03;99829.28;5061018;28;20052;-39
2023/04/12 09:35:10;;;;;;;6.90;2.08;;;;;;;19.01;43.87;99825.38;5057677;28;20091;-37
2023/04/12 09:37:36;;;;;;;7.60;2.40;;;;;;;19.02;44.22;99822.53;5063470;28;20076;-38
2023/04/12 09:40:06;;;;;;;6.28;2.20;;;;;;;19.05;44.23;99823.97;5060926;28;20066;-38
2023/04/12 09:42:33;;;;;;;3.55;2.13;;;;;;;19.06;44.24;99826.50;5062954;28;20055;-36
2023/04/12 09:45:18;;;;;;;3.53;1.80;;;;;;;19.08;44.53;99823.63;5058349;28;20080;-39
2023/04/12 09:47:45;;;;;;;5.60;2.15;;;;;;;19.11;44.49;99828.63;5058778;28;20049;-38
2023/04/12 09:50:29;;;;;;;4.00;1.95;;;;;;;19.13;44.45;99821.19;5058714;28;20063;-41
2023/04/12 09:52:57;;;;;;;5.20;2.17;;;;;;;19.16;44.07;99816.28;5064196;28;20072;-39
2023/04/12 09:55:25;;;;;;;6.55;2.30;;;;;;;19.18;44.20;99808.06;5067711;28;20040;-37
2023/04/12 09:57:53;;;;;;;5.85;2.38;;;;;;;19.20;44.17;99806.84;5066908;28;20517;-41
2023/04/12 10:00:25;;;;;;;9.73;2.50;;;;;;;19.22;44.29;99801.31;5063741;28;20044;-39
2023/04/12 10:02:54;;;;;;;5.32;2.30;;;;;;;19.23;44.14;99801.09;5065871;28;20389;-37
2023/04/12 10:05:24;;;;;;;5.13;2.25;;;;;;;19.28;43.79;99813.13;5070935;28;20144;-41
2023/04/12 10:07:52;;;;;;;7.47;2.20;;;;;;;19.28;43.99;99805.91;5064864;28;20336;-37
2023/04/12 10:10:20;;;;;;;4.70;2.38;;;;;;;19.29;43.99;99804.88;5067868;28;20084;-37
2023/04/12 10:12:47;;;;;;;6.45;2.40;;;;;;;19.31;44.54;99802.03;5061770;28;20100;-40
2023/04/12 10:15:19;;;;;;;6.95;2.10;;;;;;;19.32;43.78;99812.56;5069720;28;20384;-40
2023/04/12 10:17:56;;;;;;;6.10;1.83;;;;;;;19.33;43.94;99808.03;5064072;28;20162;-40
2023/04/12 10:20:23;;;;;;;6.55;2.67;;;;;;;19.35;44.21;99806.84;5060687;28;20053;-40
2023/04/12 10:22:54;;;;;;;6.82;2.33;;;;;;;19.36;44.06;99805.81;5064232;28;20048;-40
2023/04/12 10:25:24;;;;;;;5.38;1.88;;;;;;;19.38;44.18;99811.00;5067928;28;20057;-40
2023/04/12 10:27:50;;;;;;;7.82;2.25;;;;;;;19.39;43.47;99807.28;5062587;28;20048;-41
2023/04/12 10:30:26;;;;;;;5.43;2.30;;;;;;;19.39;43.56;99808.13;5060632;28;20144;-41
2023/04/12 10:33:15;;;;;;;5.35;2.28;;;;;;;19.42;43.71;99804.25;5065993;28;20344;-39
2023/04/12 10:36:02;;;;;;;5.25;2.22;;;;;;;19.43;43.24;99801.34;5057909;28;20269;-40
2023/04/12 10:38:36;;;;;;;6.55;1.85;;;;;;;19.45;43.89;99798.47;5064573;28;20056;-40
2023/04/12 10:41:10;;;;;;;6.60;2.28;;;;;;;19.46;43.31;99802.84;5065956;28;20051;-36
2023/04/12 10:43:37;;;;;;;6.30;2.22;;;;;;;19.46;43.13;99800.97;5063920;28;20432;-40
2023/04/12 10:46:05;;;;;;;8.00;1.92;;;;;;;19.49;42.93;99813.19;5066705;28;20431;-38
2023/04/12 10:48:52;;;;;;;11.15;2.38;;;;;;;19.49;43.24;99810.50;5063355;28;20051;-41
2023/04/12 10:51:24;;;;;;;7.38;2.22;;;;;;;19.51;43.30;99813.03;5061039;28;20065;-41
2023/04/12 10:54:06;;;;;;;5.22;2.20;;;;;;;19.50;43.60;99812.19;5061850;28;20053;-38
2023/04/12 10:56:41;;;;;;;7.32;2.45;;;;;;;19.53;43.31;99806.41;5066704;28;20098;-39
2023/04/12 10:59:08;;;;;;;5.65;1.80;;;;;;;19.55;43.23;99808.94;5062088;28;20052;-40
2023/04/12 11:01:36;;;;;;;4.00;1.83;;;;;;;19.59;43.44;99805.69;5063112;28;20068;-37
2023/04/12 11:04:13;;;;;;;5.70;1.75;;;;;;;19.63;43.28;99812.38;5066146;28;20044;-40
2023/04/12 11:06:49;;;;;;;5.35;2.00;;;;;;;19.68;43.02;99815.31;5065317;28;20102;-39
2023/04/12 11:09:19;;;;;;;5.22;1.80;;;;;;;19.71;43.28;99814.13;5065493;28;20425;-41
2023/04/12 11:11:45;;;;;;;8.48;2.33;;;;;;;19.73;43.75;99812.06;5061337;28;20051;-40
2023/04/12 11:14:14;;;;;;;6.40;2.08;;;;;;;19.78;43.38;99812.34;5072418;28;20075;-40
2023/04/12 11:17:06;;;;;;;5.85;2.13;;;;;;;19.78;43.26;99815.03;5070343;28;20063;-38
2023/04/12 11:19:40;;;;;;;5.70;1.63;;;;;;;19.80;43.27;99818.34;5062759;28;20090;-38
2023/04/12 11:22:13;;;;;;;6.53;2.03;;;;;;;19.80;43.60;99826.41;5066528;28;20051;-37
2023/04/12 11:24:43;;;;;;;5.85;1.83;;;;;;;19.80;43.20;99830.97;5071505;28;20060;-38
2023/04/12 11:27:10;;;;;;;6.43;2.40;;;;;;;19.80;42.90;99820.22;5078533;28;20060;-41
2023/04/12 11:29:37;;;;;;;4.90;2.00;;;;;;;19.80;43.61;99820.22;5067807;28;20080;-40
2023/04/12 11:32:11;;;;;;;4.82;1.90;;;;;;;19.82;43.25;99816.31;5061114;28;20051;-40
2023/04/12 11:34:38;;;;;;;4.80;1.70;;;;;;;19.82;42.94;99820.84;5062344;28;20206;-41
2023/04/12 11:37:08;;;;;;;5.80;2.03;;;;;;;19.82;42.98;99829.75;5063872;28;20562;-38
2023/04/12 11:39:40;;;;;;;8.18;2.75;;;;;;;19.81;43.00;99820.00;5060092;28;20371;-38